Time;durP1;ratioP1;P1;durP2;ratioP2;P2;SDS_P1;SDS_P2;PMS_P1;PMS_P2;Temp;Humidity;BMP_temperature;BMP_pressure;BME280_temperature;BME280_humidity;BME280_pressure;Samples;Min_cycle;Max_cycle;Signal;HPM_P1;HPM_P2
2023/05/07 00:00:02;;;;;;;0.50;0.40;;;15.30;99.90;;;;;;5059029;28;20476;-80
2023/05/07 00:02:29;;;;;;;0.50;0.40;;;15.30;99.90;;;;;;5057631;28;20437;-80
2023/05/07 00:04:57;;;;;;;0.50;0.40;;;15.30;99.90;;;;;;5069717;28;20461;-79
2023/05/07 00:07:24;;;;;;;0.50;0.40;;;15.20;99.90;;;;;;5053424;28;20437;-77
2023/05/07 00:09:51;;;;;;;0.50;0.30;;;15.20;99.90;;;;;;5073706;28;20559;-80
2023/05/07 00:12:17;;;;;;;0.50;0.30;;;15.20;99.90;;;;;;5073465;28;20446;-79
2023/05/07 00:14:45;;;;;;;0.50;0.33;;;15.20;99.90;;;;;;5071112;28;20552;-80
2023/05/07 00:17:12;;;;;;;0.50;0.40;;;15.20;99.90;;;;;;5060035;28;20866;-80
2023/05/07 00:19:39;;;;;;;0.50;0.33;;;15.20;99.90;;;;;;5057140;28;20869;-80
2023/05/07 00:22:07;;;;;;;0.50;0.40;;;15.20;99.90;;;;;;5059446;28;20544;-80
2023/05/07 00:24:34;;;;;;;0.50;0.30;;;15.20;99.90;;;;;;5053269;28;20543;-80
2023/05/07 00:27:01;;;;;;;0.50;0.40;;;15.20;99.90;;;;;;5053573;28;20524;-80
2023/05/07 00:29:28;;;;;;;0.50;0.30;;;15.20;99.90;;;;;;5052954;28;20481;-79
2023/05/07 00:31:55;;;;;;;0.50;0.40;;;15.20;99.90;;;;;;5066127;28;20531;-79
2023/05/07 00:34:22;;;;;;;0.50;0.40;;;15.20;99.90;;;;;;5056985;28;20984;-79
2023/05/07 00:36:49;;;;;;;0.50;0.40;;;15.10;99.90;;;;;;5055605;28;20440;-80
2023/05/07 00:39:17;;;;;;;0.50;0.40;;;15.00;99.90;;;;;;5058376;28;20451;-79
2023/05/07 00:41:44;;;;;;;0.50;0.30;;;15.00;99.90;;;;;;5055705;28;20831;-79
2023/05/07 00:44:10;;;;;;;0.50;0.30;;;15.00;99.90;;;;;;5072934;28;20468;-79
2023/05/07 00:46:38;;;;;;;0.50;0.40;;;14.90;99.90;;;;;;5054653;28;20447;-79
2023/05/07 00:49:05;;;;;;;0.50;0.40;;;14.90;99.90;;;;;;5052901;28;20452;-80
2023/05/07 00:51:33;;;;;;;0.50;0.40;;;14.90;99.90;;;;;;5062168;28;20449;-78
2023/05/07 00:54:01;;;;;;;0.50;0.40;;;14.90;99.90;;;;;;5065101;28;20463;-80
2023/05/07 00:56:30;;;;;;;0.50;0.30;;;14.80;99.90;;;;;;5055984;28;20537;-78
2023/05/07 00:58:57;;;;;;;0.50;0.40;;;14.70;99.90;;;;;;5065061;28;20799;-80
2023/05/07 01:01:24;;;;;;;0.50;0.40;;;14.60;99.90;;;;;;5056917;28;20527;-79
2023/05/07 01:03:50;;;;;;;0.50;0.40;;;14.60;99.90;;;;;;5060613;28;20493;-80
2023/05/07 01:06:18;;;;;;;0.50;0.40;;;14.50;99.90;;;;;;5052961;28;20441;-79
2023/05/07 01:08:45;;;;;;;0.50;0.40;;;14.40;99.90;;;;;;5063574;28;20439;-80
2023/05/07 01:11:12;;;;;;;0.50;0.40;;;14.40;99.90;;;;;;5064332;28;20476;-80
2023/05/07 01:13:42;;;;;;;0.50;0.30;;;14.50;99.90;;;;;;5054596;28;20441;-79
2023/05/07 01:16:10;;;;;;;0.50;0.40;;;14.50;99.90;;;;;;5053024;28;20464;-79
2023/05/07 01:18:37;;;;;;;0.60;0.53;;;14.70;99.90;;;;;;5062025;28;20446;-79
2023/05/07 01:21:06;;;;;;;0.50;0.30;;;14.70;99.90;;;;;;5072906;28;20527;-78
2023/05/07 01:23:36;;;;;;;1.07;0.93;;;14.80;99.90;;;;;;5071801;28;20490;-79
2023/05/07 01:26:03;;;;;;;0.50;0.30;;;14.80;99.90;;;;;;5066125;28;20440;-79
2023/05/07 01:28:29;;;;;;;0.50;0.40;;;14.80;99.90;;;;;;5063869;28;20539;-75
2023/05/07 01:31:01;;;;;;;0.50;0.50;;;14.90;99.90;;;;;;5068329;28;21013;-79
2023/05/07 01:33:31;;;;;;;0.50;0.30;;;14.90;99.90;;;;;;5061057;28;20441;-80
2023/05/07 01:36:00;;;;;;;0.50;0.30;;;14.90;99.90;;;;;;5064468;28;20792;-79
2023/05/07 01:38:28;;;;;;;0.50;0.40;;;14.90;99.90;;;;;;5079072;28;20444;-79
2023/05/07 01:40:57;;;;;;;0.50;0.40;;;14.90;99.90;;;;;;5063936;28;20445;-80
2023/05/07 01:43:23;;;;;;;0.50;0.37;;;14.90;99.90;;;;;;5064409;28;20998;-79
2023/05/07 01:45:51;;;;;;;0.50;0.40;;;14.90;99.90;;;;;;5054883;28;20436;-78
2023/05/07 01:48:18;;;;;;;0.50;0.40;;;14.90;99.90;;;;;;5071661;28;20468;-80
2023/05/07 01:50:46;;;;;;;0.50;0.37;;;14.90;99.90;;;;;;5063363;28;20994;-80
2023/05/07 01:53:12;;;;;;;0.50;0.30;;;14.80;99.90;;;;;;5057801;28;20467;-79
2023/05/07 01:55:39;;;;;;;0.50;0.40;;;14.80;99.90;;;;;;5069439;28;20551;-80
2023/05/07 01:58:08;;;;;;;0.50;0.40;;;14.80;99.90;;;;;;5063755;28;20475;-80
2023/05/07 02:00:34;;;;;;;0.50;0.40;;;14.80;99.90;;;;;;5065193;28;20806;-79
2023/05/07 02:03:01;;;;;;;0.50;0.33;;;14.80;99.90;;;;;;5061181;28;20447;-80
2023/05/07 02:05:28;;;;;;;0.50;0.40;;;14.80;99.90;;;;;;5061812;28;20732;-79
2023/05/07 02:07:55;;;;;;;0.60;0.40;;;14.80;99.90;;;;;;5056457;28;20511;-79
2023/05/07 02:10:22;;;;;;;0.60;0.40;;;14.80;99.90;;;;;;5063656;28;20479;-79
2023/05/07 02:12:49;;;;;;;0.50;0.40;;;14.80;99.90;;;;;;5063486;28;20828;-80
2023/05/07 02:15:17;;;;;;;0.50;0.40;;;14.70;99.90;;;;;;5072027;28;20546;-80
2023/05/07 02:18:00;;;;;;;0.50;0.40;;;14.60;99.90;;;;;;5069735;28;20501;-80
2023/05/07 02:20:27;;;;;;;0.50;0.30;;;14.60;99.90;;;;;;5060186;28;20437;-80
2023/05/07 02:22:53;;;;;;;0.50;0.40;;;14.50;99.90;;;;;;5062758;28;20440;-80
2023/05/07 02:25:20;;;;;;;0.50;0.40;;;14.50;99.90;;;;;;5071755;28;20797;-78
2023/05/07 02:27:47;;;;;;;0.50;0.40;;;14.50;99.90;;;;;;5060781;28;20447;-79
2023/05/07 02:30:14;;;;;;;0.50;0.40;;;14.50;99.90;;;;;;5051711;28;20480;-80
2023/05/07 02:32:43;;;;;;;0.50;0.30;;;14.50;99.90;;;;;;5060125;28;21016;-80
2023/05/07 02:35:10;;;;;;;0.50;0.40;;;14.50;99.90;;;;;;5065407;28;20468;-80
2023/05/07 02:37:36;;;;;;;0.50;0.37;;;14.60;99.90;;;;;;5071123;28;20448;-79
2023/05/07 02:40:04;;;;;;;0.97;0.97;;;14.60;99.90;;;;;;5067278;28;20441;-79
2023/05/07 02:42:31;;;;;;;0.50;0.40;;;14.60;99.90;;;;;;5060077;28;20440;-79
2023/05/07 02:44:58;;;;;;;0.50;0.40;;;14.50;99.90;;;;;;5043509;28;20464;-80
2023/05/07 02:47:26;;;;;;;0.50;0.40;;;14.50;99.90;;;;;;5067417;28;20915;-79
2023/05/07 02:49:54;;;;;;;0.50;0.40;;;14.40;99.90;;;;;;5052089;28;20445;-79
2023/05/07 02:52:21;;;;;;;0.50;0.40;;;14.30;99.90;;;;;;5058464;28;20444;-80
2023/05/07 02:54:48;;;;;;;0.50;0.40;;;14.30;99.90;;;;;;5054621;28;20464;-80
2023/05/07 02:57:15;;;;;;;0.50;0.40;;;14.30;99.90;;;;;;5065867;28;20531;-80
2023/05/07 02:59:42;;;;;;;0.50;0.37;;;14.30;99.90;;;;;;5067817;28;20452;-79
2023/05/07 03:02:09;;;;;;;0.50;0.40;;;14.20;99.90;;;;;;5054614;28;20809;-79
2023/05/07 03:04:36;;;;;;;0.50;0.40;;;14.20;99.90;;;;;;5071042;28;20475;-79
2023/05/07 03:07:04;;;;;;;0.50;0.40;;;14.10;99.90;;;;;;5054946;28;20950;-79
2023/05/07 03:09:31;;;;;;;0.50;0.40;;;14.10;99.90;;;;;;5054853;28;20540;-76
2023/05/07 03:11:58;;;;;;;0.50;0.37;;;14.10;99.90;;;;;;5058020;28;20559;-80
2023/05/07 03:14:25;;;;;;;0.50;0.40;;;14.00;99.90;;;;;;5074930;28;20487;-76
2023/05/07 03:16:52;;;;;;;0.50;0.40;;;14.00;99.90;;;;;;5057809;28;20445;-79
2023/05/07 03:19:18;;;;;;;0.50;0.40;;;14.00;99.90;;;;;;5066807;28;20448;-80
2023/05/07 03:21:45;;;;;;;0.50;0.40;;;14.00;99.90;;;;;;5074994;28;20451;-79
2023/05/07 03:24:13;;;;;;;0.50;0.37;;;14.00;99.90;;;;;;5075864;28;20474;-79
2023/05/07 03:26:40;;;;;;;0.50;0.30;;;14.00;99.90;;;;;;5065352;28;21030;-79
2023/05/07 03:29:07;;;;;;;0.50;0.40;;;14.00;99.90;;;;;;5054289;28;20451;-79
2023/05/07 03:31:34;;;;;;;0.50;0.40;;;14.00;99.90;;;;;;5062297;28;20928;-76
2023/05/07 03:34:01;;;;;;;0.63;0.63;;;14.00;99.90;;;;;;5074746;28;20865;-77
2023/05/07 03:36:28;;;;;;;0.50;0.40;;;14.00;99.90;;;;;;5074426;28;20535;-76
2023/05/07 03:38:55;;;;;;;0.50;0.37;;;14.00;99.90;;;;;;5071782;28;20448;-80
2023/05/07 03:41:23;;;;;;;0.50;0.40;;;14.00;99.90;;;;;;5060619;28;20440;-80
2023/05/07 03:43:50;;;;;;;0.50;0.30;;;14.10;99.90;;;;;;5065790;28;20460;-80
2023/05/07 03:46:16;;;;;;;0.50;0.37;;;14.10;99.90;;;;;;5074255;28;20452;-79
2023/05/07 03:48:43;;;;;;;0.67;0.67;;;14.10;99.90;;;;;;5074284;28;20535;-80
2023/05/07 03:51:10;;;;;;;0.50;0.40;;;14.10;99.90;;;;;;5069592;28;21029;-81
2023/05/07 03:53:37;;;;;;;3.07;1.13;;;14.10;99.90;;;;;;5063433;28;20468;-79
2023/05/07 03:56:04;;;;;;;1.03;1.03;;;14.10;99.90;;;;;;5067067;28;20444;-80
2023/05/07 03:58:32;;;;;;;0.50;0.40;;;14.10;99.90;;;;;;5067075;28;20444;-76
2023/05/07 04:00:59;;;;;;;0.50;0.40;;;14.10;99.90;;;;;;5066485;28;20519;-81
2023/05/07 04:03:26;;;;;;;0.50;0.40;;;14.10;99.90;;;;;;5066932;28;20504;-81
2023/05/07 04:05:53;;;;;;;0.50;0.40;;;14.10;99.90;;;;;;5064249;28;20451;-81
2023/05/07 04:08:20;;;;;;;0.50;0.40;;;14.10;99.90;;;;;;5062921;28;20532;-81
2023/05/07 04:10:46;;;;;;;0.50;0.40;;;14.10;99.90;;;;;;5064319;28;20919;-81
2023/05/07 04:13:14;;;;;;;0.50;0.40;;;14.10;99.90;;;;;;5066312;28;20494;-81
2023/05/07 04:15:42;;;;;;;0.50;0.40;;;14.10;99.90;;;;;;5065314;28;20539;-80
2023/05/07 04:18:09;;;;;;;0.50;0.40;;;14.10;99.90;;;;;;5063006;28;20452;-81
2023/05/07 04:20:37;;;;;;;0.50;0.40;;;14.00;99.90;;;;;;5062556;28;20528;-81
2023/05/07 04:23:04;;;;;;;0.50;0.40;;;14.00;99.90;;;;;;5054868;28;20536;-82
2023/05/07 04:25:30;;;;;;;0.50;0.40;;;14.00;99.90;;;;;;5062667;28;20540;-81
2023/05/07 04:27:57;;;;;;;0.50;0.30;;;14.10;99.90;;;;;;5064708;28;20441;-81
2023/05/07 04:30:24;;;;;;;0.50;0.40;;;14.00;99.90;;;;;;5065886;28;21003;-81
2023/05/07 04:32:52;;;;;;;0.50;0.30;;;14.10;99.90;;;;;;5064200;28;20527;-81
2023/05/07 04:35:19;;;;;;;0.50;0.40;;;14.10;99.90;;;;;;5062564;28;20805;-81
2023/05/07 04:37:46;;;;;;;0.73;0.73;;;14.20;99.90;;;;;;5063185;28;20513;-82
2023/05/07 04:40:13;;;;;;;0.50;0.40;;;14.20;99.90;;;;;;5066287;28;20522;-81
2023/05/07 04:42:40;;;;;;;2.20;0.50;;;14.30;99.90;;;;;;5065619;28;20811;-78
2023/05/07 04:45:08;;;;;;;0.50;0.40;;;14.30;99.90;;;;;;5062671;28;20552;-81
2023/05/07 04:47:35;;;;;;;1.27;1.17;;;14.30;99.90;;;;;;5062121;28;20445;-81
2023/05/07 04:50:03;;;;;;;0.50;0.40;;;14.40;99.90;;;;;;5065396;28;20436;-81
2023/05/07 04:52:31;;;;;;;0.50;0.40;;;14.40;99.90;;;;;;5066101;28;20482;-81
2023/05/07 04:54:59;;;;;;;1.00;0.93;;;14.40;99.90;;;;;;5062934;28;20494;-81
2023/05/07 04:57:26;;;;;;;0.50;0.40;;;14.50;99.90;;;;;;5062922;28;20527;-81
2023/05/07 04:59:53;;;;;;;0.50;0.30;;;14.50;99.90;;;;;;5064317;28;20544;-80
2023/05/07 05:02:20;;;;;;;0.50;0.40;;;14.50;99.90;;;;;;5065174;28;20436;-81
2023/05/07 05:04:47;;;;;;;0.93;0.93;;;14.60;99.90;;;;;;5063773;28;20498;-79
2023/05/07 05:07:15;;;;;;;0.50;0.40;;;14.50;99.90;;;;;;5061371;28;20441;-81
2023/05/07 05:09:42;;;;;;;0.70;0.60;;;14.50;99.90;;;;;;5061864;28;20472;-80
2023/05/07 05:12:09;;;;;;;0.50;0.40;;;14.50;99.90;;;;;;5065204;28;20511;-81
2023/05/07 05:14:36;;;;;;;0.50;0.40;;;14.60;99.90;;;;;;5064842;28;20460;-81
2023/05/07 05:17:02;;;;;;;2.20;2.10;;;14.60;99.90;;;;;;5061748;28;20441;-82
2023/05/07 05:19:29;;;;;;;1.10;1.10;;;14.60;99.90;;;;;;5062089;28;20883;-80
2023/05/07 05:21:56;;;;;;;0.50;0.30;;;14.60;99.90;;;;;;5062952;28;20437;-81
2023/05/07 05:24:24;;;;;;;0.87;0.87;;;14.70;99.90;;;;;;5065362;28;20843;-81
2023/05/07 05:26:53;;;;;;;0.50;0.40;;;14.70;99.90;;;;;;5063350;28;20965;-81
2023/05/07 05:29:21;;;;;;;0.50;0.40;;;14.80;99.90;;;;;;5061531;28;20480;-82
2023/05/07 05:31:47;;;;;;;0.50;0.30;;;14.90;99.90;;;;;;5061682;28;20491;-81
2023/05/07 05:34:14;;;;;;;0.50;0.40;;;15.00;99.90;;;;;;5065260;28;20834;-81
2023/05/07 05:36:41;;;;;;;0.90;0.70;;;15.10;99.90;;;;;;5065083;28;20460;-82
2023/05/07 05:39:09;;;;;;;0.50;0.40;;;15.20;99.90;;;;;;5053520;28;20475;-81
2023/05/07 05:41:37;;;;;;;1.10;1.10;;;15.30;99.90;;;;;;5060988;28;20448;-80
2023/05/07 05:44:04;;;;;;;0.50;0.50;;;15.40;99.90;;;;;;5063776;28;20821;-81
2023/05/07 05:46:31;;;;;;;1.57;1.47;;;15.60;99.90;;;;;;5064764;28;20498;-80
2023/05/07 05:48:58;;;;;;;0.60;0.53;;;15.70;99.90;;;;;;5062715;28;21042;-81
2023/05/07 05:51:24;;;;;;;0.50;0.40;;;15.80;99.90;;;;;;5061574;28;20476;-81
2023/05/07 05:53:51;;;;;;;1.27;0.60;;;16.00;99.90;;;;;;5062472;28;20461;-81
2023/05/07 05:56:18;;;;;;;0.50;0.40;;;16.10;99.90;;;;;;5064444;28;20482;-81
2023/05/07 05:58:47;;;;;;;0.50;0.30;;;16.30;99.90;;;;;;5064018;28;20439;-79
2023/05/07 06:01:14;;;;;;;0.63;0.63;;;16.40;99.90;;;;;;5063457;28;20568;-81
2023/05/07 06:03:41;;;;;;;0.87;0.87;;;16.70;99.90;;;;;;5073128;28;20527;-81
2023/05/07 06:06:08;;;;;;;0.50;0.40;;;16.80;99.90;;;;;;5062458;28;20546;-81
2023/05/07 06:08:34;;;;;;;0.50;0.30;;;16.80;99.90;;;;;;5062038;28;20985;-80
2023/05/07 06:11:02;;;;;;;0.50;0.40;;;16.90;99.90;;;;;;5063198;28;20445;-81
2023/05/07 06:13:29;;;;;;;0.50;0.30;;;16.90;99.90;;;;;;5066601;28;20527;-82
2023/05/07 06:15:57;;;;;;;0.50;0.30;;;17.10;99.90;;;;;;5061092;28;20441;-81
2023/05/07 06:18:24;;;;;;;0.70;0.60;;;17.30;99.90;;;;;;5061515;28;20441;-81
2023/05/07 06:20:52;;;;;;;0.50;0.30;;;17.50;99.90;;;;;;5062088;28;20449;-81
2023/05/07 06:23:19;;;;;;;0.80;0.80;;;17.90;99.90;;;;;;5060242;28;20445;-81
2023/05/07 06:25:49;;;;;;;0.60;0.50;;;18.20;99.90;;;;;;5060878;28;21122;-82
2023/05/07 06:28:16;;;;;;;0.50;0.30;;;18.50;99.90;;;;;;5053401;28;20859;-81
2023/05/07 06:30:43;;;;;;;0.50;0.30;;;18.50;99.90;;;;;;5061202;28;20441;-81
2023/05/07 06:33:11;;;;;;;0.50;0.33;;;18.60;99.90;;;;;;5063987;28;20543;-81
2023/05/07 06:35:38;;;;;;;0.50;0.30;;;18.80;99.90;;;;;;5065736;28;21046;-80
2023/05/07 06:38:05;;;;;;;0.50;0.30;;;18.80;99.90;;;;;;5065329;28;20443;-81
2023/05/07 06:40:32;;;;;;;0.50;0.30;;;18.80;99.90;;;;;;5064599;28;20533;-81
2023/05/07 06:42:58;;;;;;;0.50;0.30;;;18.60;99.90;;;;;;5066352;28;20537;-80
2023/05/07 06:45:25;;;;;;;0.50;0.30;;;18.50;99.90;;;;;;5068292;28;20562;-81
2023/05/07 06:47:52;;;;;;;0.50;0.30;;;18.50;99.90;;;;;;5067316;28;20815;-80
2023/05/07 06:50:21;;;;;;;0.50;0.40;;;18.50;99.90;;;;;;5064393;28;20443;-83
2023/05/07 06:52:47;;;;;;;0.50;0.40;;;18.50;99.90;;;;;;5064477;28;20542;-79
2023/05/07 06:55:14;;;;;;;0.50;0.30;;;18.50;99.90;;;;;;5067925;28;20502;-81
2023/05/07 06:57:41;;;;;;;1.37;1.27;;;18.50;99.90;;;;;;5067859;28;20903;-79
2023/05/07 07:00:09;;;;;;;0.50;0.30;;;18.60;99.90;;;;;;5064958;28;20537;-81
2023/05/07 07:02:37;;;;;;;0.50;0.30;;;18.70;99.90;;;;;;5064473;28;20449;-81
2023/05/07 07:05:04;;;;;;;0.50;0.30;;;18.80;99.90;;;;;;5072382;28;20478;-82
2023/05/07 07:07:32;;;;;;;0.50;0.30;;;18.70;99.90;;;;;;5064838;28;20551;-77
2023/05/07 07:09:59;;;;;;;0.50;0.30;;;18.70;99.90;;;;;;5065790;28;20869;-79
2023/05/07 07:12:26;;;;;;;0.50;0.30;;;18.70;99.90;;;;;;5067531;28;20631;-81
2023/05/07 07:14:53;;;;;;;1.53;1.17;;;18.80;99.90;;;;;;5066397;28;20460;-79
2023/05/07 07:17:20;;;;;;;0.50;0.40;;;19.00;99.90;;;;;;5064324;28;20532;-81
2023/05/07 07:19:46;;;;;;;0.80;0.80;;;19.30;99.90;;;;;;5064009;28;20533;-83
2023/05/07 07:22:13;;;;;;;0.50;0.30;;;19.70;99.90;;;;;;5067102;28;20432;-81
2023/05/07 07:24:41;;;;;;;6.53;0.83;;;19.90;99.90;;;;;;5067515;28;20551;-81
2023/05/07 07:27:08;;;;;;;1.20;0.57;;;19.80;99.90;;;;;;5064999;28;20539;-80
2023/05/07 07:29:35;;;;;;;0.50;0.30;;;19.80;99.90;;;;;;5063988;28;20445;-78
2023/05/07 07:32:02;;;;;;;0.90;0.67;;;19.60;99.90;;;;;;5065305;28;20499;-81
2023/05/07 07:34:28;;;;;;;0.50;0.30;;;19.60;99.90;;;;;;5067385;28;20506;-79
2023/05/07 07:36:56;;;;;;;0.50;0.30;;;19.80;99.90;;;;;;5066305;28;20440;-81
2023/05/07 07:39:22;;;;;;;0.50;0.40;;;19.90;99.90;;;;;;5064445;28;20441;-81
2023/05/07 07:41:51;;;;;;;0.50;0.40;;;20.00;99.90;;;;;;5064304;28;20528;-80
2023/05/07 07:44:17;;;;;;;0.70;0.67;;;20.10;99.90;;;;;;5056968;28;20925;-79
2023/05/07 07:46:44;;;;;;;0.50;0.30;;;20.40;99.90;;;;;;5063803;28;20449;-81
2023/05/07 07:49:11;;;;;;;0.50;0.30;;;20.70;99.90;;;;;;5067162;28;20958;-81
2023/05/07 07:51:38;;;;;;;0.50;0.30;;;21.10;99.90;;;;;;5067903;28;20475;-78
2023/05/07 07:54:05;;;;;;;0.50;0.30;;;21.60;99.90;;;;;;5065600;28;20542;-81
2023/05/07 07:56:33;;;;;;;0.50;0.30;;;21.90;99.90;;;;;;5064598;28;20447;-79
2023/05/07 07:59:01;;;;;;;0.50;0.30;;;22.00;99.90;;;;;;5065468;28;20448;-81
2023/05/07 08:01:30;;;;;;;0.50;0.30;;;21.90;99.90;;;;;;5071688;28;20445;-81
2023/05/07 08:03:58;;;;;;;0.50;0.40;;;22.30;99.90;;;;;;5064107;28;20980;-81
2023/05/07 08:06:25;;;;;;;0.50;0.40;;;22.40;99.90;;;;;;5068215;28;20513;-82
2023/05/07 08:08:52;;;;;;;0.50;0.30;;;22.90;99.90;;;;;;5066859;28;20440;-79
2023/05/07 08:11:19;;;;;;;2.53;2.43;;;23.40;99.90;;;;;;5068088;28;20543;-80
2023/05/07 08:13:47;;;;;;;0.50;0.30;;;23.60;99.90;;;;;;5068375;28;20979;-81
2023/05/07 08:16:15;;;;;;;0.50;0.30;;;23.80;99.90;;;;;;5067943;28;20463;-82
2023/05/07 08:18:42;;;;;;;0.50;0.30;;;24.10;99.90;;;;;;5066772;28;20448;-81
2023/05/07 08:21:09;;;;;;;0.50;0.30;;;24.10;99.90;;;;;;5067565;28;20447;-82
2023/05/07 08:23:35;;;;;;;0.50;0.30;;;24.20;99.90;;;;;;5067977;28;20433;-80
2023/05/07 08:26:02;;;;;;;0.50;0.30;;;24.10;99.90;;;;;;5066026;28;20454;-81
2023/05/07 08:28:29;;;;;;;0.50;0.40;;;24.10;99.90;;;;;;5063318;28;20443;-80
2023/05/07 08:30:59;;;;;;;0.50;0.30;;;24.00;99.90;;;;;;5063419;28;21042;-82
2023/05/07 08:33:27;;;;;;;0.50;0.30;;;24.00;99.90;;;;;;5066509;28;20991;-81
2023/05/07 08:35:54;;;;;;;0.50;0.30;;;24.10;99.90;;;;;;5066366;28;20451;-81
2023/05/07 08:38:21;;;;;;;0.50;0.30;;;24.40;99.90;;;;;;5063508;28;20530;-81
2023/05/07 08:40:48;;;;;;;0.50;0.40;;;24.40;99.90;;;;;;5063319;28;20441;-81
2023/05/07 08:43:15;;;;;;;0.50;0.30;;;24.10;99.90;;;;;;5066717;28;20433;-81
2023/05/07 08:45:42;;;;;;;0.50;0.40;;;23.80;99.90;;;;;;5067281;28;20464;-80
2023/05/07 08:48:15;;;;;;;0.50;0.37;;;23.60;99.90;;;;;;5064298;28;20803;-82
2023/05/07 08:50:43;;;;;;;0.60;0.60;;;23.60;99.90;;;;;;5062469;28;20531;-81
2023/05/07 08:53:10;;;;;;;0.50;0.30;;;23.70;99.90;;;;;;5064432;28;20480;-82
2023/05/07 08:55:37;;;;;;;0.50;0.30;;;24.10;99.90;;;;;;5065401;28;20475;-82
2023/05/07 08:58:04;;;;;;;0.50;0.30;;;24.50;99.90;;;;;;5063716;28;20444;-82
2023/05/07 09:00:31;;;;;;;0.50;0.40;;;25.10;99.90;;;;;;5061235;28;20452;-82
2023/05/07 09:02:58;;;;;;;0.50;0.40;;;26.10;99.90;;;;;;5061878;28;20438;-81
2023/05/07 09:05:25;;;;;;;0.50;0.40;;;27.10;99.90;;;;;;5065367;28;20602;-80
2023/05/07 09:07:54;;;;;;;0.50;0.30;;;28.10;96.10;;;;;;5065377;28;20515;-79
2023/05/07 09:10:22;;;;;;;0.50;0.40;;;29.00;94.80;;;;;;5064805;28;20444;-80
2023/05/07 09:12:49;;;;;;;0.50;0.40;;;29.40;92.70;;;;;;5064788;28;20472;-81
2023/05/07 09:15:16;;;;;;;1.17;0.70;;;30.50;88.80;;;;;;5062480;28;20552;-81
2023/05/07 09:17:44;;;;;;;0.50;0.30;;;31.60;88.80;;;;;;5061833;28;20477;-81
2023/05/07 09:20:12;;;;;;;0.50;0.30;;;32.80;79.00;;;;;;5063615;28;20468;-78
2023/05/07 09:22:39;;;;;;;0.50;0.30;;;33.30;74.10;;;;;;5065580;28;20932;-78
2023/05/07 09:25:09;;;;;;;0.50;0.40;;;34.00;68.00;;;;;;5063453;28;20470;-80
2023/05/07 09:27:36;;;;;;;0.50;0.33;;;33.80;65.70;;;;;;5061430;28;20451;-81
2023/05/07 09:30:06;;;;;;;1.13;1.13;;;33.70;69.00;;;;;;5061747;28;20446;-80
2023/05/07 09:32:36;;;;;;;0.40;0.30;;;34.00;64.10;;;;;;5061658;28;20481;-81
2023/05/07 09:35:03;;;;;;;0.50;0.30;;;34.00;63.30;;;;;;5062947;28;20457;-82
2023/05/07 09:37:31;;;;;;;0.50;0.30;;;34.00;64.70;;;;;;5066150;28;20440;-80
2023/05/07 09:39:58;;;;;;;0.50;0.30;;;34.50;63.90;;;;;;5065533;28;20433;-80
2023/05/07 09:42:28;;;;;;;0.50;0.30;;;33.80;64.20;;;;;;5061644;28;20868;-81
2023/05/07 09:44:55;;;;;;;0.50;0.30;;;34.10;64.90;;;;;;5062047;28;20467;-81
2023/05/07 09:47:25;;;;;;;0.40;0.30;;;34.00;62.20;;;;;;5063995;28;20471;-79
2023/05/07 09:49:57;;;;;;;0.50;0.30;;;33.90;62.60;;;;;;5064853;28;20454;-81
2023/05/07 09:52:28;;;;;;;0.50;0.33;;;34.10;61.50;;;;;;5053176;28;20469;-80
2023/05/07 09:54:59;;;;;;;0.40;0.30;;;35.20;65.20;;;;;;5061868;28;20558;-81
2023/05/07 09:57:28;;;;;;;1.10;1.00;;;35.90;59.30;;;;;;5053344;28;20587;-81
2023/05/07 09:59:57;;;;;;;0.50;0.30;;;35.50;58.00;;;;;;5061134;28;20437;-82
2023/05/07 10:02:26;;;;;;;0.50;0.40;;;34.70;61.80;;;;;;5052567;28;20933;-80
2023/05/07 10:04:55;;;;;;;0.60;0.57;;;34.30;61.00;;;;;;5061226;28;20477;-81
2023/05/07 10:07:22;;;;;;;0.40;0.30;;;34.30;59.80;;;;;;5069346;28;20437;-81
2023/05/07 10:09:51;;;;;;;0.50;0.30;;;34.40;58.90;;;;;;5063195;28;20440;-82
2023/05/07 10:12:19;;;;;;;0.50;0.30;;;34.60;62.80;;;;;;5067640;28;20447;-81
2023/05/07 10:14:48;;;;;;;0.47;0.30;;;35.10;59.80;;;;;;5068811;28;20463;-81
2023/05/07 10:17:17;;;;;;;0.47;0.30;;;34.80;57.50;;;;;;5066395;28;20444;-81
2023/05/07 10:19:45;;;;;;;0.50;0.30;;;34.20;59.60;;;;;;5065503;28;20536;-81
2023/05/07 10:22:14;;;;;;;0.50;0.30;;;34.00;58.80;;;;;;5067083;28;20944;-79
2023/05/07 10:24:42;;;;;;;0.50;0.30;;;33.80;59.80;;;;;;5069134;28;20455;-80
2023/05/07 10:27:11;;;;;;;1.33;0.60;;;33.60;58.30;;;;;;5067272;28;20432;-81
2023/05/07 10:29:46;;;;;;;0.53;0.50;;;33.20;59.00;;;;;;5064662;28;20443;-80
2023/05/07 10:32:36;;;;;;;0.50;0.30;;;32.60;60.10;;;;;;5065103;28;20875;-81
2023/05/07 10:35:05;;;;;;;0.50;0.30;;;31.90;62.40;;;;;;5065167;28;20467;-81
2023/05/07 10:37:33;;;;;;;0.50;0.50;;;31.30;64.40;;;;;;5068640;28;20938;-76
2023/05/07 10:40:00;;;;;;;0.50;0.50;;;31.20;67.80;;;;;;5068455;28;20893;-78
2023/05/07 10:42:26;;;;;;;0.50;0.30;;;31.60;67.20;;;;;;5056996;28;21059;-80
2023/05/07 10:44:53;;;;;;;0.50;0.30;;;31.70;63.20;;;;;;5065357;28;20586;-80
2023/05/07 10:47:21;;;;;;;0.50;0.30;;;32.40;63.90;;;;;;5067379;28;20520;-81
2023/05/07 10:50:31;;;;;;;0.50;0.30;;;33.10;63.40;;;;;;5068999;28;20530;-80
2023/05/07 10:53:24;;;;;;;0.47;0.30;;;33.90;61.50;;;;;;5054871;28;20485;-80
2023/05/07 10:55:52;;;;;;;0.50;0.30;;;34.20;60.30;;;;;;5049900;28;20480;-82
2023/05/07 10:58:26;;;;;;;0.50;0.30;;;34.10;59.40;;;;;;5075013;28;20493;-81
2023/05/07 11:00:57;;;;;;;0.50;0.30;;;33.90;58.20;;;;;;5067261;28;20447;-80
2023/05/07 11:03:26;;;;;;;0.60;0.50;;;33.10;58.30;;;;;;5065033;28;20443;-80
2023/05/07 11:06:11;;;;;;;0.50;0.30;;;32.80;58.60;;;;;;5064296;28;20468;-82
2023/05/07 11:08:55;;;;;;;0.50;0.30;;;32.30;60.70;;;;;;5057560;28;20505;-79
2023/05/07 11:11:45;;;;;;;0.50;0.30;;;32.50;62.60;;;;;;5065480;28;20536;-80
2023/05/07 11:14:12;;;;;;;0.50;0.30;;;32.60;61.70;;;;;;5065374;28;20578;-80
2023/05/07 11:16:41;;;;;;;0.50;0.30;;;32.50;58.90;;;;;;5064410;28;20921;-82
2023/05/07 11:19:09;;;;;;;0.50;0.30;;;31.90;58.70;;;;;;5064888;28;20445;-81
2023/05/07 11:21:37;;;;;;;0.50;0.30;;;31.40;59.20;;;;;;5067254;28;20451;-81
2023/05/07 11:24:05;;;;;;;0.50;0.30;;;30.50;59.70;;;;;;5067570;28;20821;-79
2023/05/07 11:26:43;;;;;;;0.50;0.30;;;29.90;62.00;;;;;;5065082;28;20955;-76
2023/05/07 11:29:12;;;;;;;0.60;0.40;;;29.10;62.30;;;;;;5065455;28;20449;-82
2023/05/07 11:31:39;;;;;;;0.50;0.30;;;28.50;65.40;;;;;;5067268;28;20920;-78
2023/05/07 11:34:07;;;;;;;0.50;0.30;;;28.10;66.40;;;;;;5066216;28;20494;-82
2023/05/07 11:36:36;;;;;;;0.50;0.30;;;28.40;70.30;;;;;;5064043;28;20445;-81
2023/05/07 11:39:03;;;;;;;0.50;0.30;;;28.50;67.10;;;;;;5064258;28;20451;-82
2023/05/07 11:41:37;;;;;;;0.50;0.30;;;28.60;68.90;;;;;;5051876;28;20440;-82
2023/05/07 11:44:04;;;;;;;0.50;0.40;;;28.60;65.20;;;;;;5067597;28;20448;-82
2023/05/07 11:46:31;;;;;;;0.60;0.30;;;28.30;66.60;;;;;;5055925;28;20527;-79
2023/05/07 11:48:58;;;;;;;0.50;0.30;;;27.90;65.20;;;;;;5063761;28;20802;-82
2023/05/07 11:51:26;;;;;;;0.50;0.30;;;27.40;67.60;;;;;;5066546;28;20441;-82
2023/05/07 11:53:54;;;;;;;0.50;0.30;;;27.20;70.90;;;;;;5067435;28;20476;-80
2023/05/07 11:56:21;;;;;;;0.50;0.30;;;27.40;71.70;;;;;;5065796;28;20614;-81
2023/05/07 11:58:50;;;;;;;0.50;0.30;;;27.40;73.10;;;;;;5063485;28;21013;-82
2023/05/07 12:01:18;;;;;;;0.50;0.30;;;27.30;71.40;;;;;;5065353;28;20888;-82
2023/05/07 12:03:46;;;;;;;0.50;0.30;;;27.30;71.00;;;;;;5067228;28;20838;-82
2023/05/07 12:06:15;;;;;;;0.50;0.30;;;27.10;69.70;;;;;;5065736;28;20440;-82
2023/05/07 12:08:43;;;;;;;0.50;0.30;;;27.00;71.70;;;;;;5063739;28;20451;-82
2023/05/07 12:11:16;;;;;;;0.50;0.30;;;26.60;73.50;;;;;;5064373;28;20468;-82
2023/05/07 12:13:43;;;;;;;0.50;0.30;;;26.50;72.80;;;;;;5062123;28;20475;-81
2023/05/07 12:16:10;;;;;;;0.50;0.30;;;26.10;72.60;;;;;;5063723;28;20445;-82
2023/05/07 12:18:37;;;;;;;0.50;0.30;;;25.70;74.10;;;;;;5066659;28;20432;-80
2023/05/07 12:21:07;;;;;;;0.50;0.30;;;25.10;75.90;;;;;;5066874;28;20447;-81
2023/05/07 12:23:34;;;;;;;0.50;0.40;;;24.90;79.20;;;;;;5055169;28;20971;-81
2023/05/07 12:26:02;;;;;;;0.60;0.60;;;24.80;79.80;;;;;;5062818;28;20830;-82
2023/05/07 12:28:31;;;;;;;0.50;0.30;;;24.70;81.50;;;;;;5063271;28;20432;-80
2023/05/07 12:30:58;;;;;;;0.50;0.40;;;24.70;81.80;;;;;;5062436;28;20433;-81
2023/05/07 12:33:27;;;;;;;0.50;0.30;;;24.50;81.40;;;;;;5065179;28;20472;-82
2023/05/07 12:35:55;;;;;;;0.50;0.30;;;24.30;81.40;;;;;;5066146;28;20444;-80
2023/05/07 12:38:23;;;;;;;0.50;0.30;;;24.30;85.20;;;;;;5065971;28;20445;-80
2023/05/07 12:40:51;;;;;;;0.50;0.30;;;24.30;89.40;;;;;;5066146;28;20451;-80
2023/05/07 12:43:19;;;;;;;0.50;0.30;;;24.20;87.80;;;;;;5064966;28;20527;-80
2023/05/07 12:45:50;;;;;;;0.50;0.30;;;24.00;92.20;;;;;;5062633;28;20473;-82
2023/05/07 12:48:17;;;;;;;0.50;0.30;;;23.90;93.60;;;;;;5063612;28;20446;-80
2023/05/07 12:50:44;;;;;;;0.50;0.30;;;23.70;98.80;;;;;;5066251;28;20521;-81